Flight Track Log - Related Links

Times and Time Zones

All times are in EDT time to prevent confusion due to time zone crossing. See the ASQ5883 flight status page for this flight to view local times or setup timezone preferences in your user account.

Time Position Orientation Groundspeed Altitude Reporting Facility
EDT Latitude Longitude Course Direction KTS MPH feet Rate Location/Type
Sun 09:51:27 AM 42.0000 -87.8167 66° East 194 223 3,700  Level Chicago TRACON
Sun 09:51:55 AM 42.0172 -87.7872 52° Northeast 201 231 4,300 2,090 Climbing Chicago Center
Sun 09:52:56 AM 42.0486 -87.6992 64° Northeast 246 283 6,800 2,311 Climbing Chicago Center
Sun 09:53:57 AM 42.0819 -87.6067 64° Northeast 270 311 9,000 1,770 Climbing Chicago Center
Sun 09:54:00 AM 42.1682 -87.3623 66° East  Level FlightAware Approximate
Sun 09:54:58 AM 42.1106 -87.5061 69° East 290 334 10,400  Level Chicago Center
Sun 09:55:00 AM 42.2150 -87.2217 66° East  Level FlightAware Approximate
Sun 09:55:59 AM 42.1208 -87.3758 84° East 342 394 11,700  Level Chicago Center
Sun 09:56:00 AM 42.2603 -87.0857 66° East  Level FlightAware Approximate
Sun 09:57:00 AM 42.1319 -87.2431 84° East 356 410 13,200  Level Chicago Center
Sun 09:58:01 AM 42.1436 -87.1078 83° East 363 418 15,100 1,721 Climbing Chicago Center
Sun 09:59:02 AM 42.1544 -86.9731 84° East 363 418 16,700 1,328 Climbing Chicago Center
Sun 10:00:03 AM 42.1664 -86.8350 83° East 372 428 17,800 1,131 Climbing Chicago Center
Sun 10:01:04 AM 42.1797 -86.6683 84° East 382 440 19,000 689 Climbing Chicago Center
Sun 10:02:05 AM 42.1925 -86.5114 84° East 414 476 19,200 488 Climbing Chicago Center
Sun 10:03:07 AM 42.2056 -86.3511 84° East 428 493 20,000 836 Climbing Chicago Center
Sun 10:04:07 AM 42.2181 -86.1878 84° East 434 499 20,900 992 Climbing Chicago Center
Sun 10:05:08 AM 42.2306 -86.0231 84° East 440 506 22,000 1,073 Climbing Chicago Center
Sun 10:06:10 AM 42.2403 -85.8742 85° East 437 503 23,100 1,268 Climbing Chicago Center
Sun 10:07:11 AM 42.2517 -85.7139 84° East 433 498 24,600 1,475 Climbing Chicago Center
Sun 10:08:12 AM 42.2661 -85.5244 84° East 426 490 26,100 1,328 Climbing Chicago Center
Sun 10:09:13 AM 42.2775 -85.3650 84° East 432 497 27,300 1,230 Climbing Chicago Center
Sun 10:10:14 AM 42.2886 -85.2075 85° East 426 490 28,600 1,328 Climbing Chicago Center
Sun 10:11:15 AM 42.2981 -85.0531 85° East 418 481 30,000 1,377 Climbing Chicago Center
Sun 10:12:16 AM 42.2972 -84.8981 90° East 415 478 31,400 1,328 Climbing Chicago Center
Sun 10:13:17 AM 42.2933 -84.7419 92° East 416 479 32,700 1,131 Climbing Chicago Center
Sun 10:14:18 AM 42.2889 -84.5833 92° East 421 484 33,700 1,033 Climbing Chicago Center
Sun 10:15:19 AM 42.2931 -84.4269 88° East 417 480 34,800 667 Climbing Chicago Center
Sun 10:16:15 AM 42.3281 -84.2683 73° East 420 483 35,000 103 Climbing Cleveland Center
Sun 10:17:15 AM 42.3664 -84.1158 71° East 420 483 35,000  Level Cleveland Center
Sun 10:18:15 AM 42.3997 -83.9717 73° East 425 489 35,000  Level Cleveland Center
Sun 10:19:15 AM 42.4422 -83.8050 71° East 449 517 35,000  Level Cleveland Center
Sun 10:20:15 AM 42.4822 -83.6381 72° East 459 528 35,000  Level Cleveland Center
Sun 10:21:15 AM 42.5197 -83.4764 72° East 454 522 35,000  Level Cleveland Center
Sun 10:22:15 AM 42.5547 -83.3231 73° East 442 509 35,000  Level Cleveland Center
Sun 10:23:15 AM 42.5894 -83.1694 73° East 435 501 35,000  Level Cleveland Center
Sun 10:24:15 AM 42.6242 -83.0156 73° East 430 495 35,000  Level Cleveland Center
Sun 10:25:15 AM 42.6628 -82.8589 71° East 425 489 35,000  Level Cleveland Center
Sun 10:26:15 AM 42.7117 -82.7053 67° East 430 495 35,000  Level Cleveland Center
Sun 10:27:15 AM 42.7622 -82.5486 66° East 442 509 35,000  Level Cleveland Center
Sun 10:28:15 AM 42.8128 -82.3889 67° East 448 516 35,000  Level Cleveland Center
Sun 10:29:15 AM 42.8653 -82.2347 65° Northeast 453 521 35,000  Level Cleveland Center
Sun 10:30:16 AM 42.9000 -82.0500 76° East 450 518 35,000  Level Toronto Center
Sun 10:31:16 AM 42.9667 -81.8833 61° Northeast 460 529 35,000  Level Toronto Center
Sun 10:32:16 AM 43.0167 -81.7333 65° Northeast 460 529 35,000  Level Toronto Center
Sun 10:33:16 AM 43.0500 -81.5667 75° East 450 518 35,000  Level Toronto Center
Sun 10:34:16 AM 43.0833 -81.4167 73° East 450 518 35,000  Level Toronto Center
Sun 10:35:16 AM 43.1333 -81.2500 68° East 450 518 35,000  Level Toronto Center
Sun 10:36:16 AM 43.1667 -81.0667 76° East 450 518 35,000  Level Toronto Center
Sun 10:37:16 AM 43.2167 -80.9167 65° Northeast 450 518 35,000  Level Toronto Center
Sun 10:38:16 AM 43.2667 -80.7500 68° East 450 518 35,000  Level Toronto Center
Sun 10:39:16 AM 43.3167 -80.6000 65° Northeast 450 518 35,000  Level Toronto Center
Sun 10:40:16 AM 43.3500 -80.4333 75° East 450 518 35,000  Level Toronto Center
Sun 10:41:16 AM 43.3833 -80.2833 73° East 440 506 35,000  Level Toronto Center
Sun 10:42:16 AM 43.4333 -80.1167 68° East 440 506 35,000  Level Toronto Center
Sun 10:43:16 AM 43.4667 -79.9500 75° East 450 518 35,000  Level Toronto Center
Sun 10:44:16 AM 43.5000 -79.8000 73° East 450 518 35,000  Level Toronto Center
Sun 10:45:16 AM 43.5500 -79.6333 67° East 440 506 35,000  Level Toronto Center
Sun 10:46:16 AM 43.5833 -79.4667 75° East 440 506 35,000  Level Toronto Center
Sun 10:47:16 AM 43.6333 -79.3167 65° Northeast 440 506 35,000  Level Toronto Center
Sun 10:48:16 AM 43.6667 -79.1500 74° East 440 506 35,000  Level Toronto Center
Sun 10:49:16 AM 43.7000 -78.9833 74° East 450 518 35,000  Level Toronto Center
Sun 10:50:16 AM 43.7500 -78.8500 63° Northeast 440 506 35,000  Level Toronto Center
Sun 10:51:16 AM 43.8167 -78.6833 61° Northeast 440 506 35,000  Level Toronto Center
Sun 10:52:16 AM 43.8667 -78.5167 67° East 440 506 35,000  Level Toronto Center
Sun 10:53:16 AM 43.9000 -78.3833 71° East 440 506 35,000  Level Toronto Center
Sun 10:54:16 AM 43.9500 -78.2167 67° East 440 506 35,000  Level Toronto Center
Sun 10:55:16 AM 44.0167 -78.0833 55° Northeast 430 495 35,000  Level Toronto Center
Sun 10:56:16 AM 44.0667 -77.9167 67° East 430 495 35,000  Level Toronto Center
Sun 10:57:16 AM 44.1167 -77.7667 65° Northeast 430 495 35,000  Level Toronto Center
Sun 10:58:16 AM 44.1667 -77.6167 65° Northeast 440 506 35,000  Level Toronto Center
Sun 10:59:16 AM 44.2167 -77.4667 65° Northeast 450 518 35,000  Level Toronto Center
Sun 11:00:16 AM 44.2667 -77.3000 67° East 440 506 35,000  Level Toronto Center
Sun 11:01:16 AM 44.3167 -77.1333 67° East 440 506 35,000  Level Toronto Center
Sun 11:02:16 AM 44.3667 -77.0000 62° Northeast 440 506 35,000  Level Toronto Center
Sun 11:03:16 AM 44.4167 -76.8333 67° East 440 506 35,000  Level Toronto Center
Sun 11:04:16 AM 44.4667 -76.6667 67° East 440 506 35,000  Level Toronto Center
Sun 11:05:16 AM 44.5167 -76.5167 65° Northeast 440 506 35,000  Level Toronto Center
Sun 11:06:16 AM 44.5667 -76.3500 67° East 440 506 35,000 -103 Level Toronto Center
Sun 11:07:12 AM 44.6167 -76.2500 55° Northeast 440 506 34,800 -879 Descending Montreal Center
Sun 11:08:12 AM 44.6500 -76.0833 74° East 430 495 33,300 -1,500 Descending Montreal Center
Sun 11:09:12 AM 44.7000 -75.9167 67° East 420 483 31,800 -1,900 Descending Montreal Center
Sun 11:10:12 AM 44.7333 -75.7833 71° East 420 483 29,500 -2,400 Descending Montreal Center
Sun 11:11:12 AM 44.7833 -75.6167 67° East 420 483 27,000 -2,250 Descending Montreal Center
Sun 11:12:12 AM 44.8167 -75.4667 73° East 420 483 25,000 -2,150 Descending Montreal Center
Sun 11:13:12 AM 44.8667 -75.3000 67° East 430 495 22,700 -2,250 Descending Montreal Center
Sun 11:14:12 AM 44.9000 -75.1667 71° East 420 483 20,500 -2,250 Descending Montreal Center
Sun 11:15:12 AM 44.9500 -75.0000 67° East 400 460 18,200 -2,100 Descending Montreal Center
Sun 11:16:12 AM 44.9833 -74.8833 68° East 370 426 16,300 -1,900 Descending Montreal Center
Sun 11:17:12 AM 45.0333 -74.7667 59° Northeast 350 403 14,400 -1,800 Descending Montreal Center
Sun 11:18:12 AM 45.0833 -74.6667 55° Northeast 320 368 12,700 -1,550 Descending Montreal Center
Sun 11:19:12 AM 45.1333 -74.5667 55° Northeast 280 322 11,300 -1,450 Descending Montreal Center
Sun 11:20:12 AM 45.1667 -74.4667 65° Northeast 260 299 9,800 -1,700 Descending Montreal Center
Sun 11:21:12 AM 45.1833 -74.3833 74° East 260 299 7,900 -1,600 Descending Montreal Center
Sun 11:22:12 AM 45.2167 -74.2833 65° Northeast 240 276 6,600 -1,050 Descending Montreal Center
Sun 11:23:12 AM 45.2333 -74.2000 74° East 240 276 5,800 -1,100 Descending Montreal Center
Sun 11:24:12 AM 45.2500 -74.1167 74° East 230 265 4,400 -900 Descending Montreal Center
Sun 11:25:12 AM 45.2667 -74.0167 77° East 230 265 4,000 -200 Descending Montreal Center
Sun 11:26:12 AM 45.3000 -73.9500 55° Northeast 200 230 4,000 -350 Level Montreal Center
Sun 11:27:12 AM 45.3333 -73.9000 47° Northeast 170 196 3,300 -800 Descending Montreal Center
Sun 11:28:12 AM 45.3667 -73.8667 35° Northeast 170 196 2,400 -900 Descending Montreal Center

Login

Don't have an account? Register now (free) for customized features, flight alerts, and more!